Time;durP1;ratioP1;P1;durP2;ratioP2;P2;SDS_P1;SDS_P2;PMS_P1;PMS_P2;Temp;Humidity;BMP_temperature;BMP_pressure;BME280_temperature;BME280_humidity;BME280_pressure;Samples;Min_cycle;Max_cycle;Signal;HPM_P1;HPM_P2
2022/11/26 00:02:26;;;;;;;1.13;1.02;;;;;;;16.46;36.36;101886.84;5059886;28;20107;-93
2022/11/26 00:04:52;;;;;;;1.30;1.20;;;;;;;16.46;36.53;101890.38;5052692;28;20021;-93
2022/11/26 00:07:21;;;;;;;1.40;1.10;;;;;;;16.49;36.43;101884.59;5044117;28;20020;-92
2022/11/26 00:09:47;;;;;;;1.10;1.00;;;;;;;16.54;36.38;101886.75;5057490;28;20024;-93
2022/11/26 00:12:17;;;;;;;0.95;0.90;;;;;;;16.52;36.28;101899.56;5052172;28;20028;-92
2022/11/26 00:14:43;;;;;;;1.02;0.90;;;;;;;16.51;36.37;101884.41;5057051;28;20067;-92
2022/11/26 00:17:11;;;;;;;1.00;0.90;;;;;;;16.51;36.26;101887.13;5057808;28;20028;-90
2022/11/26 00:19:37;;;;;;;1.10;1.00;;;;;;;16.53;36.44;101885.06;5042889;28;20024;-92
2022/11/26 00:22:05;;;;;;;1.23;0.93;;;;;;;16.50;36.29;101885.44;5077744;28;20026;-93
2022/11/26 00:24:31;;;;;;;1.20;1.00;;;;;;;16.52;36.30;101896.88;5068777;28;20026;-92
2022/11/26 00:26:57;;;;;;;1.20;1.10;;;;;;;16.54;36.26;101892.13;5039064;28;20025;-93
2022/11/26 00:29:23;;;;;;;1.10;1.00;;;;;;;16.43;36.32;101868.34;5057263;28;20055;-92
2022/11/26 00:31:49;;;;;;;1.35;1.10;;;;;;;16.45;36.22;101872.53;5037538;28;20119;-92
2022/11/26 00:34:14;;;;;;;1.20;1.10;;;;;;;16.52;36.27;101886.06;5039107;28;20020;-92
2022/11/26 00:36:41;;;;;;;0.82;0.80;;;;;;;16.47;36.26;101875.88;5041125;28;20146;-92
2022/11/26 00:39:18;;;;;;;0.77;0.77;;;;;;;16.50;36.30;101880.03;5048711;28;20622;-93
2022/11/26 00:41:46;;;;;;;1.08;0.93;;;;;;;16.49;36.35;101881.09;5059118;28;20036;-91
2022/11/26 00:44:23;;;;;;;1.08;0.90;;;;;;;16.53;36.40;101882.38;5058185;28;20028;-92
2022/11/26 00:46:49;;;;;;;1.30;0.93;;;;;;;16.50;36.39;101880.03;5075665;28;20031;-92
2022/11/26 00:49:17;;;;;;;1.15;1.05;;;;;;;16.48;36.33;101882.09;5076487;28;20020;-93
2022/11/26 00:51:43;;;;;;;1.10;1.00;;;;;;;16.52;36.13;101877.97;5068631;28;20460;-93
2022/11/26 00:54:10;;;;;;;1.27;1.10;;;;;;;16.41;36.36;101865.81;5067626;28;20032;-92
2022/11/26 00:56:39;;;;;;;1.15;1.05;;;;;;;16.41;36.21;101854.22;5053319;28;20039;-92
2022/11/26 00:59:04;;;;;;;1.10;1.00;;;;;;;16.46;36.33;101863.41;5058701;28;20478;-92
2022/11/26 01:01:31;;;;;;;0.85;0.80;;;;;;;16.51;36.21;101866.34;5058193;28;20089;-92
2022/11/26 01:03:58;;;;;;;1.05;0.90;;;;;;;16.52;36.36;101867.19;5058010;28;20028;-91
2022/11/26 01:06:30;;;;;;;0.75;0.75;;;;;;;16.53;36.29;101875.09;5059900;28;20024;-93
2022/11/26 01:08:56;;;;;;;0.98;0.90;;;;;;;16.49;36.32;101859.50;5057284;28;20035;-92
2022/11/26 01:11:25;;;;;;;1.15;1.05;;;;;;;16.53;36.28;101882.38;5078613;28;20055;-93
2022/11/26 01:13:51;;;;;;;1.02;0.93;;;;;;;16.51;36.26;101873.63;5051247;28;20039;-92
2022/11/26 01:16:25;;;;;;;1.20;1.10;;;;;;;16.43;36.26;101857.53;5041205;28;20211;-93
2022/11/26 01:18:54;;;;;;;1.40;1.00;;;;;;;16.44;36.15;101864.63;5070455;28;20387;-93
2022/11/26 01:21:20;;;;;;;0.80;0.80;;;;;;;16.47;36.31;101869.63;5041999;28;20663;-92
2022/11/26 01:23:48;;;;;;;1.05;0.95;;;;;;;16.49;36.15;101870.28;5059354;28;20025;-93
2022/11/26 01:26:26;;;;;;;0.98;0.88;;;;;;;16.49;36.19;101867.59;5053596;28;20446;-92
2022/11/26 01:28:52;;;;;;;1.00;0.80;;;;;;;16.52;36.24;101867.19;5046185;28;20040;-92
2022/11/26 01:31:22;;;;;;;1.52;0.98;;;;;;;16.51;36.12;101871.75;5062684;28;20440;-92
2022/11/26 01:33:48;;;;;;;0.88;0.82;;;;;;;16.51;36.19;101876.31;5040719;28;20050;-93
2022/11/26 01:36:22;;;;;;;1.10;1.00;;;;;;;16.55;36.19;101861.41;5057930;28;20056;-93
2022/11/26 01:38:48;;;;;;;0.88;0.77;;;;;;;16.50;36.24;101869.25;5077489;28;20031;-92
2022/11/26 01:41:22;;;;;;;0.70;0.70;;;;;;;16.53;36.20;101858.91;5042048;28;20028;-92
2022/11/26 01:43:47;;;;;;;0.82;0.80;;;;;;;16.56;36.26;101873.88;5058050;28;20055;-92
2022/11/26 01:46:17;;;;;;;0.95;0.80;;;;;;;16.54;36.08;101873.25;5060844;28;20036;-92
2022/11/26 01:48:43;;;;;;;0.85;0.85;;;;;;;16.54;36.13;101875.94;5051160;28;20508;-91
2022/11/26 01:51:12;;;;;;;1.00;0.90;;;;;;;16.56;36.19;101879.28;5061965;28;20040;-92
2022/11/26 01:54:08;;;;;;;1.00;0.90;;;;;;;16.53;36.10;101868.88;5076526;28;20514;-92
2022/11/26 01:56:36;;;;;;;1.20;1.00;;;;;;;16.54;36.12;101870.56;5075987;28;20040;-92
2022/11/26 01:59:24;;;;;;;0.88;0.82;;;;;;;16.45;36.22;101859.03;5077596;28;20035;-92
2022/11/26 02:01:50;;;;;;;1.00;0.90;;;;;;;16.53;35.92;101875.09;5087646;27;20031;-94
2022/11/26 02:04:22;;;;;;;0.75;0.75;;;;;;;16.56;36.19;101873.03;5058324;28;20028;-92
2022/11/26 02:06:49;;;;;;;0.80;0.68;;;;;;;16.38;36.18;101849.19;5073096;28;20035;-92
2022/11/26 02:09:14;;;;;;;1.05;0.90;;;;;;;16.56;36.10;101879.28;5059579;28;20020;-92
2022/11/26 02:11:40;;;;;;;1.00;0.90;;;;;;;16.54;36.06;101870.56;5079711;28;20035;-93
2022/11/26 02:14:27;;;;;;;0.85;0.80;;;;;;;16.55;35.97;101858.72;5059844;28;20508;-92
2022/11/26 02:17:24;;;;;;;0.82;0.80;;;;;;;16.56;36.13;101863.09;5077637;28;20364;-92
2022/11/26 02:20:11;;;;;;;0.75;0.75;;;;;;;16.55;36.06;101866.81;5076806;28;20035;-92
2022/11/26 02:22:49;;;;;;;1.75;0.80;;;;;;;16.58;36.24;101876.41;5077308;28;20032;-92
2022/11/26 02:25:22;;;;;;;0.80;0.80;;;;;;;16.53;36.12;101869.69;5075246;28;20216;-93
2022/11/26 02:28:16;;;;;;;1.02;0.80;;;;;;;16.56;36.18;101871.19;5048489;28;20027;-92
2022/11/26 02:30:47;;;;;;;1.05;0.95;;;;;;;16.51;36.13;101854.75;5069904;28;20085;-89
2022/11/26 02:33:32;;;;;;;1.20;0.70;;;;;;;16.55;36.24;101866.81;5076235;28;20410;-92
2022/11/26 02:36:00;;;;;;;0.93;0.85;;;;;;;16.55;36.13;101860.59;5076460;28;20036;-91
2022/11/26 02:38:29;;;;;;;0.77;0.77;;;;;;;16.56;36.18;101868.50;5067523;28;20028;-92
2022/11/26 02:40:55;;;;;;;1.05;0.93;;;;;;;16.51;36.15;101860.97;5059386;28;22589;-93
2022/11/26 02:43:20;;;;;;;0.73;0.70;;;;;;;16.44;36.07;101848.44;5048806;28;20040;-92
2022/11/26 02:45:54;;;;;;;0.70;0.70;;;;;;;16.51;36.26;101868.22;5061229;28;20024;-92
2022/11/26 02:48:26;;;;;;;0.80;0.80;;;;;;;16.45;36.19;101850.09;5072494;28;20028;-92
2022/11/26 02:50:55;;;;;;;1.05;0.85;;;;;;;16.52;36.14;101856.38;5043624;28;20039;-92
2022/11/26 02:53:22;;;;;;;0.70;0.60;;;;;;;16.49;36.20;101856.78;5043256;28;20036;-92
2022/11/26 02:55:59;;;;;;;0.60;0.60;;;;;;;16.56;36.09;101863.09;5059281;28;20114;-92
2022/11/26 02:58:25;;;;;;;1.05;0.80;;;;;;;16.38;36.13;101839.22;5067151;28;20359;-92
2022/11/26 03:00:51;;;;;;;0.88;0.75;;;;;;;16.45;36.19;101852.78;5044068;28;20340;-92
2022/11/26 03:03:24;;;;;;;1.13;0.90;;;;;;;16.43;36.26;101849.44;5046069;28;20020;-92
2022/11/26 03:05:54;;;;;;;1.00;0.90;;;;;;;16.48;35.99;101861.34;5062073;28;20035;-92
2022/11/26 03:08:20;;;;;;;0.52;0.50;;;;;;;16.50;36.23;101861.16;5058988;28;20111;-92
2022/11/26 03:10:46;;;;;;;1.17;0.90;;;;;;;16.52;36.16;101857.25;5061412;28;20022;-92
2022/11/26 03:13:11;;;;;;;0.68;0.60;;;;;;;16.56;36.19;101876.59;5072441;28;20052;-92
2022/11/26 03:15:37;;;;;;;0.60;0.60;;;;;;;16.57;36.16;101874.72;5076048;28;20028;-92
2022/11/26 03:18:03;;;;;;;1.00;0.75;;;;;;;16.50;36.15;101853.06;5076468;28;20028;-92
2022/11/26 03:20:28;;;;;;;0.77;0.70;;;;;;;16.46;36.14;101851.78;5042157;28;20482;-92
2022/11/26 03:22:54;;;;;;;0.70;0.70;;;;;;;16.47;36.04;101848.03;5042825;28;20042;-92
2022/11/26 03:25:20;;;;;;;0.90;0.80;;;;;;;16.50;36.19;101858.44;5059365;28;20034;-91
2022/11/26 03:27:46;;;;;;;0.77;0.63;;;;;;;16.40;36.19;101853.38;5077494;28;20093;-92
2022/11/26 03:30:12;;;;;;;0.80;0.73;;;;;;;16.51;36.19;101876.31;5076457;28;20512;-93
2022/11/26 03:32:38;;;;;;;1.00;0.70;;;;;;;16.58;36.07;101866.44;5075755;28;20036;-92
2022/11/26 03:35:04;;;;;;;1.00;0.60;;;;;;;16.54;36.25;101870.56;5075847;28;20020;-92
2022/11/26 03:37:29;;;;;;;1.17;0.70;;;;;;;16.56;36.13;101876.59;5059496;28;20024;-92
2022/11/26 03:39:55;;;;;;;0.60;0.60;;;;;;;16.55;36.05;101874.91;5058572;28;20543;-93
2022/11/26 03:42:24;;;;;;;1.70;0.90;;;;;;;16.52;36.26;101864.47;5041557;28;20048;-92
2022/11/26 03:44:52;;;;;;;0.85;0.85;;;;;;;16.47;36.11;101865.06;5059530;28;20107;-91
2022/11/26 03:47:18;;;;;;;0.88;0.80;;;;;;;16.41;36.21;101865.00;5058544;28;20482;-89
2022/11/26 03:49:43;;;;;;;0.90;0.80;;;;;;;16.49;36.28;101873.81;5076317;28;20103;-93
2022/11/26 03:52:09;;;;;;;0.60;0.60;;;;;;;16.58;36.27;101893.41;5074685;28;20165;-92
2022/11/26 03:54:35;;;;;;;0.65;0.65;;;;;;;16.46;36.21;101878.75;5058246;28;20059;-92
2022/11/26 03:57:00;;;;;;;0.88;0.73;;;;;;;16.42;36.16;101882.84;5075091;28;20028;-91
2022/11/26 03:59:26;;;;;;;1.05;0.68;;;;;;;16.45;36.17;101877.94;5059059;28;20036;-92
2022/11/26 04:01:51;;;;;;;1.08;0.60;;;;;;;16.47;36.42;101885.81;5058404;28;20032;-92
2022/11/26 04:04:17;;;;;;;0.90;0.80;;;;;;;16.50;36.22;101885.44;5076405;28;20081;-91
2022/11/26 04:06:43;;;;;;;0.82;0.75;;;;;;;16.53;36.06;101895.84;5075328;28;20440;-92
2022/11/26 04:09:08;;;;;;;0.70;0.70;;;;;;;16.60;36.27;101906.72;5074469;28;20028;-91
2022/11/26 04:11:34;;;;;;;1.50;0.70;;;;;;;16.49;36.16;101890.00;5045721;28;20058;-92
2022/11/26 04:14:00;;;;;;;1.25;0.82;;;;;;;16.45;36.33;101890.56;5050785;28;20115;-92
2022/11/26 04:16:26;;;;;;;0.80;0.80;;;;;;;16.46;36.18;101889.56;5074273;28;20077;-92
2022/11/26 04:18:54;;;;;;;0.82;0.82;;;;;;;16.46;36.07;101890.38;5066711;28;20024;-92
2022/11/26 04:21:20;;;;;;;1.45;0.77;;;;;;;16.57;36.15;101907.09;5067991;28;20024;-91
2022/11/26 04:23:45;;;;;;;0.90;0.88;;;;;;;16.44;36.19;101889.75;5074163;28;20039;-92
2022/11/26 04:26:11;;;;;;;0.65;0.60;;;;;;;16.39;36.15;101885.94;5055707;28;20499;-92
2022/11/26 04:28:37;;;;;;;1.40;1.00;;;;;;;16.51;36.08;101917.63;5049997;28;20037;-92
2022/11/26 04:31:02;;;;;;;1.13;0.90;;;;;;;16.46;36.09;101905.75;5059061;28;20035;-92
2022/11/26 04:33:28;;;;;;;0.73;0.70;;;;;;;16.49;36.08;101917.00;5056786;28;20611;-92
2022/11/26 04:35:53;;;;;;;0.70;0.70;;;;;;;16.54;36.14;101927.22;5057234;28;20032;-90
2022/11/26 04:38:19;;;;;;;0.93;0.70;;;;;;;16.57;36.28;101921.44;5066801;28;20070;-91
2022/11/26 04:40:45;;;;;;;1.40;0.93;;;;;;;16.52;36.30;101916.63;5038303;28;20633;-92
2022/11/26 04:43:11;;;;;;;1.00;0.80;;;;;;;16.56;36.27;101919.78;5058319;28;20040;-91
2022/11/26 04:45:36;;;;;;;1.10;0.90;;;;;;;16.48;36.16;101903.69;5057404;28;20020;-92
2022/11/26 04:48:09;;;;;;;1.95;0.75;;;;;;;16.59;36.34;101927.50;5039976;28;20028;-92
2022/11/26 04:50:35;;;;;;;1.13;0.80;;;;;;;16.55;36.22;101915.38;5067276;28;20024;-92
2022/11/26 04:53:00;;;;;;;1.00;0.80;;;;;;;16.50;36.31;101915.13;5057622;28;20026;-92
2022/11/26 04:55:28;;;;;;;1.10;0.90;;;;;;;16.40;36.33;101891.16;5075221;28;21416;-92
2022/11/26 04:57:54;;;;;;;1.90;1.10;;;;;;;16.48;36.31;101914.47;5049717;28;20032;-92
2022/11/26 05:00:20;;;;;;;1.45;0.90;;;;;;;16.59;36.11;101927.50;5056870;28;20436;-90
2022/11/26 05:02:45;;;;;;;1.10;1.00;;;;;;;16.58;36.40;101925.81;5058359;28;20016;-92
2022/11/26 05:05:11;;;;;;;2.67;1.02;;;;;;;16.58;36.04;101924.97;5067723;28;20177;-92
2022/11/26 05:07:37;;;;;;;1.13;1.00;;;;;;;16.52;36.23;101915.75;5055091;28;20111;-91
2022/11/26 05:10:08;;;;;;;1.10;0.95;;;;;;;16.48;36.25;101915.31;5075066;28;20020;-93
2022/11/26 05:12:34;;;;;;;1.40;0.90;;;;;;;16.39;36.17;101899.44;5067502;28;20510;-92
2022/11/26 05:15:00;;;;;;;1.65;1.10;;;;;;;16.51;36.29;101914.09;5061254;28;20064;-92
2022/11/26 05:17:25;;;;;;;1.27;1.05;;;;;;;16.47;36.11;101902.00;5072860;28;20020;-92
2022/11/26 05:19:51;;;;;;;1.00;0.88;;;;;;;16.46;36.26;101920.06;5066163;28;20119;-91
2022/11/26 05:22:19;;;;;;;1.25;1.02;;;;;;;16.55;36.18;101922.66;5060686;28;20040;-92
2022/11/26 05:24:47;;;;;;;1.58;1.13;;;;;;;16.55;36.27;101931.59;5045055;28;20020;-93
2022/11/26 05:27:13;;;;;;;2.22;1.00;;;;;;;16.49;36.30;101922.38;5047571;28;20036;-93
2022/11/26 05:29:38;;;;;;;1.80;1.13;;;;;;;16.48;36.28;101914.47;5058841;28;20032;-92
2022/11/26 05:32:07;;;;;;;1.05;0.95;;;;;;;16.47;36.28;101920.88;5076158;28;20548;-92
2022/11/26 05:34:32;;;;;;;2.05;1.27;;;;;;;16.46;36.25;101917.38;5075289;28;20401;-92
2022/11/26 05:36:58;;;;;;;2.28;1.25;;;;;;;16.52;36.14;101927.41;5060785;28;20069;-92
2022/11/26 05:39:24;;;;;;;2.13;1.08;;;;;;;16.56;36.10;101922.47;5094221;28;20028;-92
2022/11/26 05:41:49;;;;;;;1.52;1.30;;;;;;;16.52;36.28;101932.81;5067662;28;20024;-92
2022/11/26 05:44:15;;;;;;;1.70;1.40;;;;;;;16.60;36.30;101931.03;5060228;28;20506;-88
2022/11/26 05:46:41;;;;;;;1.60;1.08;;;;;;;16.61;36.25;101936.22;5079139;28;20074;-91
2022/11/26 05:49:07;;;;;;;1.65;1.15;;;;;;;16.49;36.14;101918.88;5077897;28;20024;-92
2022/11/26 05:51:33;;;;;;;1.77;1.17;;;;;;;16.58;36.47;101942.00;5078383;28;20086;-93
2022/11/26 05:53:58;;;;;;;2.05;1.45;;;;;;;16.57;36.21;101942.19;5061059;28;20032;-92
2022/11/26 05:56:24;;;;;;;2.25;1.50;;;;;;;16.56;36.17;101935.09;5043046;28;20143;-92
2022/11/26 05:58:49;;;;;;;2.10;1.35;;;;;;;16.40;36.21;101917.28;5044462;28;20052;-92
2022/11/26 06:01:15;;;;;;;1.48;1.20;;;;;;;16.44;36.07;101924.81;5062134;28;20181;-92
2022/11/26 06:03:41;;;;;;;1.23;1.00;;;;;;;16.47;36.22;101934.38;5076501;28;20077;-92
2022/11/26 06:06:06;;;;;;;2.08;1.48;;;;;;;16.55;36.29;101947.78;5057802;28;20035;-91
2022/11/26 06:08:32;;;;;;;1.63;1.25;;;;;;;16.59;36.25;101959.03;5059470;28;20521;-91
2022/11/26 06:10:58;;;;;;;1.45;1.13;;;;;;;16.60;36.19;101953.44;5059835;28;20032;-92
2022/11/26 06:13:23;;;;;;;1.73;1.63;;;;;;;16.57;36.31;101950.28;5059393;28;20562;-92
2022/11/26 06:15:49;;;;;;;1.63;1.38;;;;;;;16.61;36.36;101946.16;5049126;28;20042;-92
2022/11/26 06:18:16;;;;;;;1.92;1.40;;;;;;;16.58;36.18;101946.56;5057635;28;20017;-92
2022/11/26 06:20:41;;;;;;;2.22;1.27;;;;;;;16.51;36.12;101941.09;5060598;28;20023;-91
2022/11/26 06:23:07;;;;;;;3.25;1.58;;;;;;;16.56;36.21;101949.47;5058524;28;20431;-92
2022/11/26 06:25:32;;;;;;;2.30;1.50;;;;;;;16.57;36.23;101956.50;5077177;28;20111;-92
2022/11/26 06:27:58;;;;;;;1.85;1.20;;;;;;;16.58;36.23;101946.56;5076823;28;20154;-92
2022/11/26 06:30:24;;;;;;;1.85;1.40;;;;;;;16.55;36.18;101945.06;5077031;28;20094;-92
2022/11/26 06:32:49;;;;;;;1.55;1.27;;;;;;;16.58;36.23;101949.28;5078017;28;20055;-91
2022/11/26 06:35:15;;;;;;;1.67;1.20;;;;;;;16.60;36.09;101952.63;5070130;28;20052;-91
2022/11/26 06:37:40;;;;;;;3.22;1.60;;;;;;;16.58;36.27;101958.19;5058363;28;20539;-92
2022/11/26 06:40:07;;;;;;;2.10;1.45;;;;;;;16.56;36.10;101946.75;5089419;28;20046;-92
2022/11/26 06:42:33;;;;;;;2.80;1.65;;;;;;;16.58;36.24;101958.19;5057842;28;20024;-92
2022/11/26 06:44:58;;;;;;;2.45;1.65;;;;;;;16.57;36.21;101950.28;5059169;28;20103;-92
2022/11/26 06:47:27;;;;;;;1.80;1.50;;;;;;;16.47;36.15;101935.25;5059258;28;20028;-91
2022/11/26 06:49:53;;;;;;;1.90;1.50;;;;;;;16.45;36.25;101926.50;5050986;28;20479;-91
2022/11/26 06:52:18;;;;;;;3.35;1.55;;;;;;;16.47;36.25;101935.25;5091115;28;20031;-92
2022/11/26 06:54:44;;;;;;;2.53;1.65;;;;;;;16.51;36.22;101941.09;5055285;28;20132;-92
2022/11/26 06:57:10;;;;;;;2.20;1.70;;;;;;;16.46;36.21;101938.13;5059423;28;20074;-92
2022/11/26 06:59:35;;;;;;;2.83;1.60;;;;;;;16.48;36.33;101944.16;5075778;28;20027;-92
2022/11/26 07:02:01;;;;;;;1.95;1.38;;;;;;;16.48;36.11;101944.16;5058670;28;20570;-92
2022/11/26 07:04:26;;;;;;;1.92;1.65;;;;;;;16.48;36.39;101944.16;5059219;28;20460;-92
2022/11/26 07:06:52;;;;;;;2.38;1.58;;;;;;;16.55;36.34;101957.75;5061218;28;20070;-92
2022/11/26 07:09:17;;;;;;;2.15;1.52;;;;;;;16.45;36.17;101940.00;5059436;28;20029;-93
2022/11/26 07:11:43;;;;;;;2.47;1.70;;;;;;;16.58;36.11;101963.59;5066940;28;20070;-92
2022/11/26 07:14:09;;;;;;;2.20;1.40;;;;;;;16.55;36.24;101958.56;5042271;28;20434;-92
2022/11/26 07:16:34;;;;;;;1.92;1.58;;;;;;;16.54;36.22;101959.63;5042112;28;20023;-92
2022/11/26 07:19:00;;;;;;;3.13;2.03;;;;;;;16.51;36.17;101962.69;5059610;28;20102;-92
2022/11/26 07:21:26;;;;;;;2.35;1.70;;;;;;;16.52;36.25;101962.50;5043578;28;20107;-92
2022/11/26 07:23:52;;;;;;;2.13;1.50;;;;;;;16.50;36.27;101978.00;5060752;28;20028;-92
2022/11/26 07:26:19;;;;;;;2.63;1.80;;;;;;;16.54;36.32;101962.31;5052440;28;20017;-92
2022/11/26 07:28:46;;;;;;;3.13;1.90;;;;;;;16.58;36.18;101973.56;5059145;28;20100;-92
2022/11/26 07:31:13;;;;;;;2.72;1.73;;;;;;;16.58;36.20;101982.50;5042484;28;20613;-92
2022/11/26 07:33:39;;;;;;;1.83;1.50;;;;;;;16.57;36.16;101978.09;5059573;28;20352;-92
2022/11/26 07:36:10;;;;;;;2.25;1.73;;;;;;;16.57;36.23;101972.72;5077796;28;20050;-92
2022/11/26 07:38:35;;;;;;;2.40;1.85;;;;;;;16.56;36.23;101981.84;5042121;28;20031;-92
2022/11/26 07:41:06;;;;;;;3.47;1.88;;;;;;;16.47;36.31;101956.81;5059051;28;20051;-93
2022/11/26 07:43:38;;;;;;;2.08;1.67;;;;;;;16.54;36.20;101978.50;5060162;28;20115;-92
2022/11/26 07:46:08;;;;;;;2.95;1.63;;;;;;;16.58;36.00;101995.97;5075479;28;20028;-92
2022/11/26 07:48:33;;;;;;;2.53;1.75;;;;;;;16.55;36.18;101985.56;5058846;28;20111;-92
2022/11/26 07:50:59;;;;;;;2.25;1.60;;;;;;;16.53;36.15;101993.00;5058456;28;20281;-92
2022/11/26 07:53:32;;;;;;;3.35;2.13;;;;;;;16.60;36.11;101993.09;5042608;28;20059;-92
2022/11/26 07:55:57;;;;;;;2.58;1.88;;;;;;;16.59;36.16;101988.72;5058782;28;20027;-92
2022/11/26 07:58:23;;;;;;;2.30;1.73;;;;;;;16.58;36.15;101995.97;5039596;28;20986;-93
2022/11/26 08:00:49;;;;;;;2.10;1.85;;;;;;;16.59;36.22;102003.06;5056679;28;20038;-92
2022/11/26 08:03:14;;;;;;;2.80;2.10;;;;;;;16.49;36.08;101992.56;5058125;28;20032;-92
2022/11/26 08:05:43;;;;;;;2.95;2.00;;;;;;;16.57;36.13;102004.25;5058791;28;20024;-92
2022/11/26 08:08:09;;;;;;;2.50;1.88;;;;;;;16.60;36.19;102014.69;5065764;28;20047;-92
2022/11/26 08:10:34;;;;;;;2.45;1.90;;;;;;;16.59;36.30;102004.91;5042549;28;20574;-92
2022/11/26 08:13:00;;;;;;;3.22;2.00;;;;;;;16.56;36.28;102003.44;5058019;28;20486;-92
2022/11/26 08:15:26;;;;;;;2.50;2.05;;;;;;;16.53;36.15;102003.81;5042629;28;20028;-92
2022/11/26 08:17:58;;;;;;;2.53;2.00;;;;;;;16.48;36.20;101984.63;5060969;28;20643;-92
2022/11/26 08:20:24;;;;;;;3.03;2.03;;;;;;;16.47;36.22;101993.75;5057831;28;20024;-93
2022/11/26 08:22:49;;;;;;;2.60;2.15;;;;;;;16.59;36.00;102005.78;5058205;28;20635;-92
2022/11/26 08:25:15;;;;;;;3.47;2.30;;;;;;;16.58;36.20;102014.06;5041637;28;20146;-91
2022/11/26 08:27:41;;;;;;;2.47;1.80;;;;;;;16.61;36.26;102010.94;5069033;28;20035;-91
2022/11/26 08:30:07;;;;;;;2.22;1.65;;;;;;;16.51;36.09;101995.06;5039884;28;20036;-91
2022/11/26 08:32:33;;;;;;;3.40;2.15;;;;;;;16.51;36.15;101989.66;5059374;28;20028;-93
2022/11/26 08:34:59;;;;;;;3.03;2.22;;;;;;;16.60;36.10;102004.72;5074095;28;20016;-92
2022/11/26 08:37:24;;;;;;;3.42;2.10;;;;;;;16.58;36.19;102000.56;5056182;28;20024;-92
2022/11/26 08:39:50;;;;;;;2.78;1.98;;;;;;;16.59;36.12;102005.78;5074226;28;20460;-93
2022/11/26 08:42:15;;;;;;;3.25;2.00;;;;;;;16.59;36.26;102008.47;5043050;28;20069;-93
2022/11/26 08:44:41;;;;;;;3.08;2.15;;;;;;;16.53;36.26;101993.00;5040341;28;20542;-92
2022/11/26 08:47:07;;;;;;;3.20;2.00;;;;;;;16.57;36.25;102006.97;5056219;28;20012;-91
2022/11/26 08:49:33;;;;;;;2.80;2.13;;;;;;;16.54;36.24;102005.50;5058016;28;20028;-92
2022/11/26 08:51:58;;;;;;;2.88;2.33;;;;;;;16.56;36.03;102008.84;5071941;28;20024;-92
2022/11/26 08:54:24;;;;;;;3.20;2.03;;;;;;;16.52;36.05;101999.41;5057489;28;20172;-93
2022/11/26 08:56:50;;;;;;;2.67;2.30;;;;;;;16.58;36.20;102006.78;5040681;28;20036;-91
2022/11/26 08:59:16;;;;;;;3.15;2.15;;;;;;;16.53;36.15;102010.03;5075492;28;20028;-92
2022/11/26 09:01:42;;;;;;;2.20;1.98;;;;;;;16.45;36.11;101996.66;5074366;28;20028;-93
2022/11/26 09:04:07;;;;;;;3.92;2.03;;;;;;;16.47;36.17;102000.00;5057924;28;20039;-93
2022/11/26 09:06:35;;;;;;;2.72;1.85;;;;;;;16.58;36.23;102022.16;5073111;28;20044;-92
2022/11/26 09:09:13;;;;;;;3.00;2.33;;;;;;;16.58;36.09;102017.56;5058136;28;20467;-92
2022/11/26 09:11:43;;;;;;;3.65;2.10;;;;;;;16.60;36.29;102020.09;5058140;28;20085;-92
2022/11/26 09:14:09;;;;;;;2.78;2.03;;;;;;;16.59;36.16;102018.41;5070141;28;20395;-92
2022/11/26 09:16:35;;;;;;;2.75;1.98;;;;;;;16.54;36.13;102010.88;5056327;28;20020;-92
2022/11/26 09:19:01;;;;;;;2.20;1.90;;;;;;;16.57;36.27;102017.75;5052150;28;20501;-92
2022/11/26 09:21:27;;;;;;;2.63;2.13;;;;;;;16.54;36.19;102005.50;5054525;28;20055;-92
2022/11/26 09:23:53;;;;;;;3.25;2.20;;;;;;;16.55;36.22;102009.84;5058163;28;20036;-92
2022/11/26 09:26:20;;;;;;;2.60;2.08;;;;;;;16.62;36.20;102015.34;5054124;28;20017;-92
2022/11/26 09:28:49;;;;;;;3.10;2.28;;;;;;;16.60;36.23;102020.91;5056553;28;20048;-92
2022/11/26 09:31:15;;;;;;;2.95;2.35;;;;;;;16.51;36.22;102009.38;5054292;28;20355;-93
2022/11/26 09:33:40;;;;;;;2.80;2.08;;;;;;;16.58;36.18;102017.56;5054555;28;20024;-93
2022/11/26 09:36:07;;;;;;;3.28;2.28;;;;;;;16.54;36.24;102013.59;5066415;28;20021;-93
2022/11/26 09:38:33;;;;;;;3.95;2.53;;;;;;;16.59;36.26;102021.97;5066343;28;20085;-92
2022/11/26 09:41:14;;;;;;;2.88;2.28;;;;;;;16.61;36.19;102019.03;5075061;28;20016;-91
2022/11/26 09:44:18;;;;;;;2.70;1.90;;;;;;;16.60;36.16;102025.50;5075905;28;20047;-93
2022/11/26 09:46:43;;;;;;;3.67;2.20;;;;;;;16.58;36.26;102031.06;5073493;28;20445;-93
2022/11/26 09:49:11;;;;;;;2.55;2.25;;;;;;;16.56;36.27;102022.34;5075839;28;20109;-92
2022/11/26 09:51:36;;;;;;;2.53;2.05;;;;;;;16.56;36.33;102025.03;5057799;28;20379;-92
2022/11/26 09:54:03;;;;;;;2.20;2.00;;;;;;;16.56;36.10;102029.56;5058545;28;20042;-92
2022/11/26 09:56:29;;;;;;;3.33;2.20;;;;;;;16.58;36.25;102030.25;5064836;28;20016;-92
2022/11/26 09:59:09;;;;;;;2.80;2.40;;;;;;;16.53;36.30;102030.78;5061640;28;20100;-92
2022/11/26 10:01:34;;;;;;;2.20;1.85;;;;;;;16.48;36.29;102022.44;5061137;28;24231;-93
2022/11/26 10:04:00;;;;;;;2.90;2.00;;;;;;;16.58;36.30;102049.97;5078179;28;20453;-91
2022/11/26 10:06:32;;;;;;;3.20;2.50;;;;;;;16.59;36.14;102043.56;5078213;28;20028;-92
2022/11/26 10:09:19;;;;;;;2.17;1.83;;;;;;;16.59;36.27;102040.84;5077930;28;20079;-91
2022/11/26 10:12:03;;;;;;;2.83;2.35;;;;;;;16.59;36.23;102031.91;5078172;28;20028;-92
2022/11/26 10:14:36;;;;;;;2.42;2.00;;;;;;;16.56;36.32;102027.72;5078863;28;20043;-92
2022/11/26 10:17:10;;;;;;;4.43;2.30;;;;;;;16.59;36.16;102038.16;5061096;28;20039;-91
2022/11/26 10:20:01;;;;;;;3.00;2.05;;;;;;;16.60;36.24;102037.13;5078167;28;20023;-91
2022/11/26 10:22:34;;;;;;;2.92;2.10;;;;;;;16.58;36.26;102035.66;5078516;28;20056;-92
2022/11/26 10:24:59;;;;;;;3.10;1.98;;;;;;;16.45;36.27;102017.41;5078779;28;20076;-92
2022/11/26 10:27:29;;;;;;;4.20;2.60;;;;;;;16.55;36.22;102039.53;5044541;28;20028;-92
2022/11/26 10:30:00;;;;;;;2.83;1.80;;;;;;;16.53;36.17;102028.94;5060921;28;20063;-92
2022/11/26 10:32:33;;;;;;;2.70;2.20;;;;;;;16.58;36.18;102039.16;5060887;28;20139;-91
2022/11/26 10:34:59;;;;;;;3.47;2.22;;;;;;;16.55;36.22;102044.94;5045235;28;20024;-92
2022/11/26 10:37:26;;;;;;;2.28;1.85;;;;;;;16.49;36.27;102041.13;5077586;28;20020;-92
2022/11/26 10:40:17;;;;;;;4.40;2.30;;;;;;;16.57;36.23;102053.69;5059856;28;20493;-92
2022/11/26 10:42:47;;;;;;;3.63;2.30;;;;;;;16.58;36.39;102052.66;5077230;28;20195;-91
2022/11/26 10:45:18;;;;;;;2.70;2.10;;;;;;;16.42;36.23;102021.31;5060330;28;20115;-92
2022/11/26 10:47:44;;;;;;;2.75;2.20;;;;;;;16.48;36.18;102030.53;5073454;28;20027;-92
2022/11/26 10:50:09;;;;;;;2.33;1.88;;;;;;;16.57;36.15;102048.28;5059973;28;20032;-91
2022/11/26 10:52:35;;;;;;;2.45;2.05;;;;;;;16.51;36.35;102043.66;5078455;28;20640;-91
2022/11/26 10:55:20;;;;;;;2.65;1.90;;;;;;;16.56;36.50;102054.72;5060213;28;20443;-91
2022/11/26 10:58:14;;;;;;;2.95;2.05;;;;;;;16.46;36.25;102040.66;5067605;28;20033;-92
2022/11/26 11:01:01;;;;;;;2.40;1.90;;;;;;;16.46;36.31;102029.88;5059976;28;20394;-92
2022/11/26 11:03:30;;;;;;;2.78;1.90;;;;;;;16.55;36.24;102058.44;5076440;28;20386;-92
2022/11/26 11:06:26;;;;;;;2.95;1.85;;;;;;;16.56;36.29;102053.84;5059294;28;20024;-91
2022/11/26 11:08:53;;;;;;;2.55;2.00;;;;;;;16.50;36.27;102056.28;5043227;28;20670;-92
2022/11/26 11:11:24;;;;;;;2.67;1.95;;;;;;;16.52;36.19;102061.50;5076797;28;20490;-91
2022/11/26 11:13:49;;;;;;;3.15;1.98;;;;;;;16.52;36.23;102061.50;5057490;28;20036;-92
2022/11/26 11:16:35;;;;;;;2.30;2.10;;;;;;;16.55;36.11;102068.41;5069747;28;20035;-91
2022/11/26 11:19:02;;;;;;;2.20;1.90;;;;;;;16.48;36.24;102054.81;5075272;28;20036;-92
2022/11/26 11:21:29;;;;;;;3.22;2.13;;;;;;;16.55;36.32;102066.53;5067205;28;20043;-91
2022/11/26 11:24:17;;;;;;;1.92;1.70;;;;;;;16.47;36.40;102048.59;5058617;28;20316;-91
2022/11/26 11:26:47;;;;;;;2.13;1.90;;;;;;;16.43;36.32;102039.16;5060469;28;20032;-91
2022/11/26 11:29:28;;;;;;;3.40;1.90;;;;;;;16.56;36.25;102059.25;5067705;28;20040;-91
2022/11/26 11:31:57;;;;;;;1.60;1.50;;;;;;;16.55;36.26;102055.72;5074986;28;20512;-92